Portada
METAR-TAF:

METAR-TAF

Aeroports :

Sanya, Xina

latitud: 18-18N, longitud: 109-24E, altitud: 27 m

Observació

L'informe es va fer fa 1 hora i 19 minuts, a les 20:00 UTC
Vent 12 kt del Est/Nord-Est, variant entre Nord-Est i Est
Temperatura 26°C
Humitat 79%
Pressió 1010 hPa
Visibilitat 10 km o més
Escasses núvols a una alçada de 1600 ft
Núvols disperses a una alçada de 3300 ft

METAR: ZJSY 192000Z 07006MPS 040V100 9999 FEW016 SCT033 26/22 Q1010 NOSIG

Hora: 05:19 (21:19 UTC)

Pronòstic

L'informe es va fer fa 12 hores i 13 minuts, a les 09:06 UTC
Pronòstic vàlid del 19 a les 12 UTC al 20 a les 12 UTC
Vent 12 kt del Est amb ràfegues de 23 kt
Visibilitat 10 km o més
Núvols disperses a una alçada de 2000 ft
Cel ennuvolat a una alçada de 4000 ft

TAF: ZJSY 190906Z 1912/2012 08006G12MPS 9999 SCT020 BKN040 TX29/2006Z TN25/1921Z

Observacions i pronòstics meteorològics de més de 4000 aeroports (METAR i TAF).

Les estacions disponibles són els punts grocs i vermells al mapa.

Posi el ratolí al punt desitjat per veure el nom de l'estació.

Feu clic per veure les observacions i els pronòstics meteorològics.

Per canviar el mapa: feu clic els botons verds amb una creu de color negre per apropar; al botó verd amb un guió per allunyar la imatge; o en les fletxes verdes per a mapes adjacents.


METAR-TAF: